Etusivu
METAR-TAF:

METAR-TAF

Lentoasemat :

Newark-Heath Airport

Newark, Ohio, Yhdysvallat

Leveyspiiri: 40-01-22N, Pituuspiiri: 082-27-45W, korkeus merenpinnasta: 269 m

Tämänhetkinen sää

Tämä raportti tehtiin 21 minuuttia sitten, kello 03.54 UTC
tyyntä
Lämpötila 13°C
Kosteus 72%
Ilmanpaine 1016 hPa
Näkyvyys: 16.1 km
Pilvistä 8500 ft:n korkeudessa

METAR: KVTA 050354Z AUTO 00000KT 10SM OVC085 13/08 A2999 RMK AO2 SLP156 T01280083

Aika: 00:15 (04:15 UTC)


TAF: puuttuu

Säähavainnot ja -ennusteet yli 4000 lentoasemalta (METAR- ja TAF-raportit).

Käytössä olevat sääasemat on merkitty karttaan keltaisilla ja punaisilla pisteillä.

Aseta hiiri pisteen päälle nähdäksesi sääaseman nimen.

Klikkaa sitten nähdäksesi säähavainnot ja -ennusteet.

Kartan vaihtaminen: klikkaa mustalla rastilla varustettuja vihreitä pisteitä, niin voit zoomata sisään; viivalla varustettua vihreää pistettä, niin voit zoomata ulos tai vihreitä nuolia, niin pääset viereisille kartoille.


METAR-TAF: